createdAt,value
2023-03-11T00:00:32.467Z,72.95
2023-03-11T00:03:01.641Z,73.11
2023-03-11T00:05:35.164Z,73.05
2023-03-11T00:08:04.345Z,73.21
2023-03-11T00:10:38.998Z,73.12
2023-03-11T00:13:08.566Z,73.65
2023-03-11T00:15:36.630Z,73.93
2023-03-11T00:18:03.985Z,73.81
2023-03-11T00:20:34.275Z,73.66
2023-03-11T00:23:01.845Z,74.43
2023-03-11T00:25:31.704Z,74.62
2023-03-11T00:27:59.436Z,75.52
2023-03-11T00:30:27.148Z,75.70
2023-03-11T00:32:56.663Z,76.14
2023-03-11T00:35:26.326Z,74.79
2023-03-11T00:37:55.784Z,75.95
2023-03-11T00:40:25.154Z,76.38
2023-03-11T00:42:52.998Z,76.78
2023-03-11T00:45:21.372Z,76.99
2023-03-11T00:47:48.510Z,76.96
2023-03-11T00:50:19.357Z,76.65
2023-03-11T00:52:47.668Z,76.62
2023-03-11T00:55:17.716Z,77.30
2023-03-11T00:57:46.001Z,77.45
2023-03-11T01:00:19.224Z,77.51
2023-03-11T01:02:46.605Z,77.54
2023-03-11T01:05:14.750Z,77.01
2023-03-11T01:07:42.176Z,77.05
2023-03-11T01:10:10.559Z,78.07
2023-03-11T01:12:37.634Z,77.89
2023-03-11T01:15:06.044Z,77.52
2023-03-11T01:17:33.205Z,77.14
2023-03-11T01:20:00.238Z,75.72
2023-03-11T01:22:27.367Z,75.80
2023-03-11T01:24:55.160Z,75.95
2023-03-11T01:27:22.446Z,75.97
2023-03-11T01:29:49.489Z,75.96
2023-03-11T01:32:16.665Z,75.66
2023-03-11T01:34:43.837Z,74.83
2023-03-11T01:37:11.044Z,75.58
2023-03-11T01:39:38.233Z,76.35
2023-03-11T01:42:05.761Z,75.93
2023-03-11T01:44:33.650Z,75.10
2023-03-11T01:47:02.253Z,74.71
2023-03-11T01:49:32.911Z,74.50
2023-03-11T01:52:08.028Z,76.06
2023-03-11T01:54:42.158Z,75.49
2023-03-11T01:57:13.343Z,75.22
2023-03-11T01:59:47.407Z,74.84
2023-03-11T02:02:29.612Z,74.46
2023-03-11T02:04:57.506Z,73.81
2023-03-11T02:07:24.805Z,74.95
2023-03-11T02:09:52.324Z,75.03
2023-03-11T02:12:20.202Z,74.77
2023-03-11T02:14:51.582Z,74.96
2023-03-11T02:17:18.898Z,75.21
2023-03-11T02:19:45.987Z,75.14
2023-03-11T02:22:14.423Z,76.36
2023-03-11T02:24:48.757Z,76.27
2023-03-11T02:27:18.705Z,76.36
2023-03-11T02:29:50.254Z,75.15
2023-03-11T02:32:19.696Z,75.01
2023-03-11T02:34:47.269Z,75.61
2023-03-11T02:37:17.061Z,76.04
2023-03-11T02:39:53.165Z,76.12
2023-03-11T02:42:25.239Z,76.26
2023-03-11T02:45:10.905Z,75.02
2023-03-11T02:47:40.565Z,75.11
2023-03-11T02:50:13.831Z,75.90
2023-03-11T02:52:41.139Z,75.90
2023-03-11T02:55:10.229Z,76.13
2023-03-11T02:57:37.754Z,75.32
2023-03-11T03:00:13.432Z,76.12
2023-03-11T03:02:44.548Z,75.10
2023-03-11T03:05:11.984Z,75.76
2023-03-11T03:07:39.436Z,75.75
2023-03-11T03:10:07.521Z,76.01
2023-03-11T03:12:34.752Z,76.14
2023-03-11T03:15:01.900Z,74.98
2023-03-11T03:17:29.166Z,75.38
2023-03-11T03:19:56.357Z,77.05
2023-03-11T03:22:27.541Z,77.20
2023-03-11T03:24:55.331Z,76.91
2023-03-11T03:27:22.420Z,77.04
2023-03-11T03:29:49.577Z,75.77
2023-03-11T03:32:16.948Z,76.07
2023-03-11T03:34:44.026Z,77.02
2023-03-11T03:37:11.115Z,77.49
2023-03-11T03:39:38.410Z,76.53
2023-03-11T03:42:06.727Z,76.46
2023-03-11T03:44:39.561Z,76.36
2023-03-11T03:47:07.601Z,77.15
2023-03-11T03:49:35.075Z,77.88
2023-03-11T03:52:02.712Z,78.55
2023-03-11T03:54:32.223Z,78.75
2023-03-11T03:56:59.311Z,77.54
2023-03-11T03:59:26.406Z,77.58
2023-03-11T04:01:58.103Z,78.72
2023-03-11T04:04:27.056Z,79.21
2023-03-11T04:06:54.885Z,78.52
2023-03-11T04:09:22.092Z,78.50
2023-03-11T04:11:49.299Z,77.82
2023-03-11T04:14:18.149Z,78.17
2023-03-11T04:16:53.200Z,78.46
2023-03-11T04:19:20.601Z,79.01
2023-03-11T04:21:47.880Z,79.01
2023-03-11T04:24:15.278Z,78.76
2023-03-11T04:26:43.164Z,78.00
2023-03-11T04:29:14.386Z,78.15
2023-03-11T04:31:47.460Z,78.96
2023-03-11T04:34:14.862Z,78.49
2023-03-11T04:36:42.269Z,78.99
2023-03-11T04:39:12.418Z,79.11
2023-03-11T04:41:43.053Z,77.87
2023-03-11T04:44:14.018Z,77.96
2023-03-11T04:46:41.272Z,78.43
2023-03-11T04:49:10.458Z,78.64
2023-03-11T04:51:38.079Z,78.54
2023-03-11T04:54:06.549Z,78.61
2023-03-11T04:56:34.126Z,77.40
2023-03-11T04:59:01.583Z,77.14
2023-03-11T05:01:31.243Z,78.07
2023-03-11T05:04:01.792Z,78.54
2023-03-11T05:06:29.251Z,78.77
2023-03-11T05:08:56.547Z,78.62
2023-03-11T05:11:24.244Z,78.23
2023-03-11T05:13:51.962Z,78.20
2023-03-11T05:16:20.374Z,79.27
2023-03-11T05:18:47.658Z,78.94
2023-03-11T05:21:16.125Z,79.04
2023-03-11T05:23:45.464Z,78.86
2023-03-11T05:26:14.572Z,77.85
2023-03-11T05:28:43.855Z,77.95
2023-03-11T05:31:11.640Z,78.62
2023-03-11T05:33:39.412Z,78.44
2023-03-11T05:36:10.852Z,79.32
2023-03-11T05:38:41.555Z,78.48
2023-03-11T05:41:09.171Z,78.53
2023-03-11T05:43:36.909Z,78.70
2023-03-11T05:46:04.322Z,78.92
2023-03-11T05:48:32.232Z,78.36
2023-03-11T05:51:00.072Z,77.54
2023-03-11T05:53:27.340Z,76.71
2023-03-11T05:55:58.400Z,76.43
2023-03-11T05:58:28.401Z,77.11
2023-03-11T06:00:55.821Z,77.39
2023-03-11T06:03:23.356Z,77.65
2023-03-11T06:05:51.194Z,77.33
2023-03-11T06:08:20.487Z,75.92
2023-03-11T06:10:48.979Z,75.88
2023-03-11T06:13:17.969Z,77.04
2023-03-11T06:15:51.161Z,77.31
2023-03-11T06:18:19.956Z,77.23
2023-03-11T06:20:47.093Z,77.20
2023-03-11T06:23:14.229Z,76.78
2023-03-11T06:25:41.495Z,76.19
2023-03-11T06:28:10.028Z,77.21
2023-03-11T06:30:38.121Z,77.25
2023-03-11T06:33:09.839Z,77.86
2023-03-11T06:35:37.037Z,77.63
2023-03-11T06:38:04.151Z,76.64
2023-03-11T06:40:31.877Z,76.59
2023-03-11T06:42:59.185Z,76.74
2023-03-11T06:45:29.062Z,77.10
2023-03-11T06:47:56.900Z,78.11
2023-03-11T06:50:24.234Z,76.81
2023-03-11T06:52:53.677Z,76.72
2023-03-11T06:55:21.349Z,76.90
2023-03-11T06:57:48.529Z,76.95
2023-03-11T07:00:16.671Z,76.63
2023-03-11T07:02:49.507Z,77.12
2023-03-11T07:05:18.253Z,75.35
2023-03-11T07:07:46.851Z,75.36
2023-03-11T07:10:14.637Z,75.93
2023-03-11T07:12:41.957Z,75.02
2023-03-11T07:15:09.883Z,75.60
2023-03-11T07:17:37.156Z,74.43
2023-03-11T07:20:04.857Z,73.49
2023-03-11T07:22:31.948Z,71.93
2023-03-11T07:24:59.118Z,72.63
2023-03-11T07:27:28.394Z,71.91
2023-03-11T07:29:55.483Z,71.57
2023-03-11T07:32:22.611Z,72.21
2023-03-11T07:34:49.773Z,70.82
2023-03-11T07:37:16.895Z,70.64
2023-03-11T07:39:43.979Z,70.26
2023-03-11T07:42:11.131Z,69.64
2023-03-11T07:44:39.373Z,68.92
2023-03-11T07:47:06.685Z,67.92
2023-03-11T07:49:36.090Z,68.08
2023-03-11T07:52:03.220Z,68.11
2023-03-11T07:54:30.391Z,68.30
2023-03-11T07:56:57.452Z,68.10
2023-03-11T07:59:24.574Z,68.57
2023-03-11T08:01:51.867Z,67.62
2023-03-11T08:04:18.944Z,67.58
2023-03-11T08:06:47.807Z,67.36
2023-03-11T08:09:15.318Z,66.82
2023-03-11T08:11:42.626Z,64.74
2023-03-11T08:14:09.791Z,63.98
2023-03-11T08:16:39.353Z,62.75
2023-03-11T08:19:06.454Z,62.68
2023-03-11T08:21:33.651Z,62.68
2023-03-11T08:24:02.614Z,62.49
2023-03-11T08:26:31.277Z,61.39
2023-03-11T08:28:59.472Z,61.33
2023-03-11T08:31:29.868Z,60.73
2023-03-11T08:34:01.033Z,60.96
2023-03-11T08:36:28.677Z,61.48
2023-03-11T08:38:55.786Z,61.45
2023-03-11T08:41:22.992Z,61.61
2023-03-11T08:43:52.343Z,60.69
2023-03-11T08:46:27.391Z,60.73
2023-03-11T08:48:55.185Z,61.15
2023-03-11T08:51:23.710Z,60.91
2023-03-11T08:53:52.044Z,61.34
2023-03-11T08:56:19.689Z,60.03
2023-03-11T08:58:47.348Z,59.65
2023-03-11T09:01:14.512Z,59.63
2023-03-11T09:03:41.559Z,60.88
2023-03-11T09:06:13.877Z,58.58
2023-03-11T09:08:41.474Z,62.49
2023-03-11T09:11:09.454Z,64.72
2023-03-11T09:13:36.614Z,66.35
2023-03-11T09:16:06.033Z,67.71
2023-03-11T09:18:33.185Z,71.16
2023-03-11T09:21:01.294Z,72.50
2023-03-11T09:23:28.441Z,74.02
2023-03-11T09:25:55.523Z,75.84
2023-03-11T09:28:22.798Z,76.17
2023-03-11T09:30:49.919Z,77.12
2023-03-11T09:33:17.283Z,77.33
2023-03-11T09:35:45.014Z,76.70
2023-03-11T09:38:12.145Z,77.07
2023-03-11T09:41:04.462Z,77.17
2023-03-11T09:43:54.543Z,78.06
2023-03-11T10:17:34.161Z,82.44
2023-03-11T10:20:16.165Z,82.16
2023-03-11T10:23:01.821Z,79.72
2023-03-11T10:25:51.434Z,79.95
2023-03-11T10:28:21.048Z,79.44
2023-03-11T10:30:49.652Z,81.01
2023-03-11T10:33:29.496Z,82.53
2023-03-11T10:36:00.760Z,82.49
2023-03-11T10:38:32.865Z,82.90
2023-03-11T10:41:05.209Z,83.25
2023-03-11T10:43:39.073Z,84.73
2023-03-11T10:46:17.467Z,86.40
2023-03-11T10:48:44.612Z,85.97
2023-03-11T10:51:22.909Z,85.03
2023-03-11T10:53:59.824Z,84.14
2023-03-11T10:56:31.701Z,82.62
2023-03-11T10:59:00.164Z,83.48
2023-03-11T11:01:29.089Z,80.82
2023-03-11T11:04:01.032Z,79.10
2023-03-11T11:06:36.397Z,76.79
2023-03-11T11:09:26.855Z,77.94
2023-03-11T11:12:12.019Z,78.96
2023-03-11T11:14:51.325Z,77.76
2023-03-11T11:17:21.244Z,76.49
2023-03-11T11:19:49.682Z,74.11
2023-03-11T11:22:19.447Z,72.95
2023-03-11T11:24:48.756Z,73.30
2023-03-11T11:27:28.056Z,74.28
2023-03-11T11:30:21.679Z,72.86
2023-03-11T11:32:49.313Z,73.45
2023-03-11T11:35:17.835Z,69.99
2023-03-11T11:37:51.677Z,71.30
2023-03-11T11:40:26.482Z,71.04
2023-03-11T11:43:05.275Z,70.25
2023-03-11T11:45:41.383Z,70.64
2023-03-11T11:48:49.986Z,71.27
2023-03-11T11:51:43.112Z,70.21
2023-03-11T11:54:31.380Z,69.50
2023-03-11T11:56:58.885Z,69.31
2023-03-11T11:59:27.151Z,70.89
2023-03-11T12:02:11.893Z,69.99
2023-03-11T12:04:45.833Z,68.21
2023-03-11T12:07:24.998Z,68.99
2023-03-11T12:10:21.632Z,68.20
2023-03-11T12:13:22.438Z,69.74
2023-03-11T12:16:12.818Z,68.68
2023-03-11T12:19:01.860Z,67.60
2023-03-11T12:21:58.213Z,66.74
2023-03-11T12:24:42.885Z,65.53
2023-03-11T12:27:34.135Z,67.84
2023-03-11T12:30:16.922Z,67.35
2023-03-11T12:32:57.728Z,66.09
2023-03-11T12:35:28.042Z,65.29
2023-03-11T12:38:13.310Z,64.30
2023-03-11T12:40:42.832Z,64.00
2023-03-11T12:43:35.905Z,63.47
2023-03-11T12:46:05.218Z,62.60
2023-03-11T12:48:35.197Z,63.66
2023-03-11T12:51:02.749Z,63.71
2023-03-11T12:53:48.093Z,64.90
2023-03-11T12:56:34.817Z,63.72
2023-03-11T12:59:35.360Z,63.84
2023-03-11T13:02:20.667Z,63.77
2023-03-11T13:05:15.533Z,64.11
2023-03-11T13:07:52.798Z,63.77
2023-03-11T13:10:34.910Z,63.29
2023-03-11T13:13:02.734Z,63.64
2023-03-11T13:15:34.905Z,63.33
2023-03-11T13:18:12.730Z,63.73
2023-03-11T13:20:41.576Z,63.33
2023-03-11T13:23:14.748Z,64.35
2023-03-11T13:25:47.975Z,64.57
2023-03-11T13:28:47.404Z,64.05
2023-03-11T13:31:18.010Z,64.75
2023-03-11T13:34:00.096Z,64.85
2023-03-11T13:36:46.719Z,65.13
2023-03-11T13:39:46.010Z,65.68
2023-03-11T13:42:38.405Z,65.32
2023-03-11T13:45:08.338Z,67.36
2023-03-11T13:47:37.006Z,65.80
2023-03-11T13:50:10.425Z,66.72
2023-03-11T13:52:43.967Z,67.88
2023-03-11T13:55:31.270Z,65.44
2023-03-11T13:57:58.956Z,66.37
2023-03-11T14:00:29.365Z,64.90
2023-03-11T14:02:59.307Z,65.00
2023-03-11T14:05:35.157Z,65.77
2023-03-11T14:08:20.720Z,65.95
2023-03-11T14:10:58.337Z,64.70
2023-03-11T14:13:28.607Z,65.11
2023-03-11T14:16:10.144Z,64.35
2023-03-11T14:18:39.882Z,64.35
2023-03-11T14:21:16.616Z,63.83
2023-03-11T14:23:52.426Z,62.88
2023-03-11T14:26:31.540Z,62.43
2023-03-11T14:29:11.500Z,62.83
2023-03-11T14:31:41.612Z,62.76
2023-03-11T14:34:11.374Z,62.94
2023-03-11T14:36:57.265Z,62.59
2023-03-11T14:39:33.063Z,63.16
2023-03-11T14:42:20.335Z,63.14
2023-03-11T14:44:53.375Z,62.64
2023-03-11T14:47:54.331Z,63.50
2023-03-11T14:50:25.803Z,64.36
2023-03-11T14:53:02.463Z,64.89
2023-03-11T14:55:55.200Z,63.88
2023-03-11T14:58:34.717Z,63.50
2023-03-11T15:01:12.121Z,63.11
2023-03-11T15:03:50.805Z,63.72
2023-03-11T15:06:21.360Z,63.03
2023-03-11T15:08:58.579Z,62.66
2023-03-11T15:11:28.474Z,62.84
2023-03-11T15:14:17.238Z,62.48
2023-03-11T15:16:44.650Z,63.31
2023-03-11T15:19:29.674Z,65.47
2023-03-11T15:22:21.693Z,65.45
2023-03-11T15:24:57.939Z,64.21
2023-03-11T15:27:30.264Z,64.64
2023-03-11T15:29:58.596Z,63.66
2023-03-11T15:32:29.975Z,63.68
2023-03-11T15:35:10.742Z,63.35
2023-03-11T15:37:38.919Z,62.21
2023-03-11T15:40:44.930Z,61.10
2023-03-11T15:43:15.544Z,61.26
2023-03-11T15:45:44.252Z,60.65
2023-03-11T15:48:12.342Z,60.51
2023-03-11T15:50:54.806Z,60.98
2023-03-11T15:53:24.508Z,60.34
2023-03-11T15:55:53.744Z,59.75
2023-03-11T15:58:21.865Z,59.40
2023-03-11T16:00:56.148Z,58.36
2023-03-11T16:03:24.370Z,59.72
2023-03-11T16:05:51.478Z,58.63
2023-03-11T16:08:18.523Z,58.91
2023-03-11T16:10:45.580Z,59.14
2023-03-11T16:13:14.542Z,59.26
2023-03-11T16:15:42.527Z,58.72
2023-03-11T16:18:10.345Z,59.97
2023-03-11T16:20:50.061Z,59.31
2023-03-11T16:23:36.170Z,59.58
2023-03-11T16:26:11.087Z,59.65
2023-03-11T16:28:38.831Z,59.90
2023-03-11T16:31:08.035Z,60.50
2023-03-11T16:33:38.402Z,62.09
2023-03-11T16:36:06.142Z,62.35
2023-03-11T16:38:45.444Z,62.42
2023-03-11T16:41:12.696Z,61.44
2023-03-11T16:43:39.749Z,60.92
2023-03-11T16:46:06.897Z,61.26
2023-03-11T16:48:34.099Z,61.23
2023-03-11T16:51:01.652Z,61.02
2023-03-11T16:53:28.887Z,60.50
2023-03-11T16:55:56.410Z,60.18
2023-03-11T16:58:23.553Z,60.05
2023-03-11T17:00:50.654Z,60.74
2023-03-11T17:03:21.600Z,60.98
2023-03-11T17:05:49.421Z,60.10
2023-03-11T17:08:18.394Z,60.72
2023-03-11T17:10:46.404Z,59.73
2023-03-11T17:13:15.966Z,59.22
2023-03-11T17:15:45.903Z,60.05
2023-03-11T17:18:13.695Z,59.84
2023-03-11T17:20:43.629Z,59.62
2023-03-11T17:23:10.810Z,59.64
2023-03-11T17:25:41.706Z,59.96
2023-03-11T17:28:09.373Z,60.54
2023-03-11T17:30:37.629Z,59.81
2023-03-11T17:33:05.171Z,60.17
2023-03-11T17:35:32.369Z,59.93
2023-03-11T17:37:59.743Z,59.93
2023-03-11T17:40:29.385Z,61.16
2023-03-11T17:42:56.594Z,61.44
2023-03-11T17:45:23.650Z,62.61
2023-03-11T17:47:50.891Z,62.11
2023-03-11T17:50:18.340Z,61.93
2023-03-11T17:52:47.133Z,62.16
2023-03-11T17:55:14.260Z,61.95
2023-03-11T17:57:45.555Z,62.69
2023-03-11T18:00:15.104Z,63.06
2023-03-11T18:02:42.788Z,62.57
2023-03-11T18:05:10.502Z,61.89
2023-03-11T18:07:41.244Z,61.67
2023-03-11T18:10:09.705Z,62.21
2023-03-11T18:12:37.047Z,62.49
2023-03-11T18:15:07.421Z,62.60
2023-03-11T18:17:37.623Z,62.94
2023-03-11T18:20:05.646Z,62.98
2023-03-11T18:22:35.285Z,63.29
2023-03-11T18:25:02.627Z,63.07
2023-03-11T18:27:29.748Z,64.24
2023-03-11T18:29:56.868Z,64.23
2023-03-11T18:32:24.831Z,64.22
2023-03-11T18:34:52.344Z,63.96
2023-03-11T18:37:19.546Z,64.50
2023-03-11T18:39:46.621Z,64.06
2023-03-11T18:42:16.054Z,62.42
2023-03-11T18:44:43.183Z,62.84
2023-03-11T18:47:10.374Z,63.21
2023-03-11T18:49:37.456Z,63.02
2023-03-11T18:52:04.745Z,63.27
2023-03-11T18:54:32.256Z,63.93
2023-03-11T18:56:59.410Z,64.48
2023-03-11T18:59:27.929Z,64.60
2023-03-11T19:01:55.522Z,65.00
2023-03-11T19:04:22.870Z,65.08
2023-03-11T19:06:50.433Z,64.97
2023-03-11T19:09:21.062Z,65.86
2023-03-11T19:11:48.227Z,64.20
2023-03-11T19:14:15.953Z,64.11
2023-03-11T19:16:43.169Z,63.69
2023-03-11T19:19:11.930Z,62.90
2023-03-11T19:21:39.345Z,62.08
2023-03-11T19:24:06.703Z,61.95
2023-03-11T19:26:44.868Z,61.83
2023-03-11T19:29:14.301Z,61.69
2023-03-11T19:31:43.751Z,60.56
2023-03-11T19:34:11.338Z,60.52
2023-03-11T19:36:39.387Z,60.24
2023-03-11T19:39:07.030Z,61.55
2023-03-11T19:41:34.179Z,62.02
2023-03-11T19:44:01.637Z,62.88
2023-03-11T19:46:29.941Z,62.57
2023-03-11T19:48:57.184Z,62.42
2023-03-11T19:51:25.418Z,62.72
2023-03-11T19:53:55.572Z,62.35
2023-03-11T19:56:22.793Z,62.66
2023-03-11T19:58:50.117Z,60.24
2023-03-11T20:01:21.609Z,59.67
2023-03-11T20:03:48.763Z,59.57
2023-03-11T20:06:18.619Z,60.15
2023-03-11T20:08:45.898Z,60.53
2023-03-11T20:11:13.174Z,60.57
2023-03-11T20:13:42.786Z,57.53
2023-03-11T20:16:18.531Z,57.12
2023-03-11T20:18:50.367Z,56.24
2023-03-11T20:21:17.773Z,56.97
2023-03-11T20:23:44.875Z,56.86
2023-03-11T20:26:14.980Z,57.59
2023-03-11T20:28:42.718Z,57.69
2023-03-11T20:31:24.721Z,57.10
2023-03-11T20:33:53.457Z,57.97
2023-03-11T20:36:27.050Z,58.82
2023-03-11T20:38:55.429Z,59.48
2023-03-11T20:41:24.036Z,59.25
2023-03-11T20:43:56.759Z,59.19
2023-03-11T20:46:24.076Z,59.69
2023-03-11T20:48:51.368Z,59.96
2023-03-11T20:51:20.751Z,60.37
2023-03-11T20:53:49.164Z,60.97
2023-03-11T20:56:20.264Z,61.04
2023-03-11T20:58:51.054Z,60.54
2023-03-11T21:01:28.008Z,60.84
2023-03-11T21:03:58.450Z,61.91
2023-03-11T21:06:29.209Z,62.40
2023-03-11T21:08:59.143Z,62.80
2023-03-11T21:11:26.929Z,62.84
2023-03-11T21:13:54.904Z,63.17
2023-03-11T21:16:23.029Z,63.14
2023-03-11T21:18:50.460Z,62.71
2023-03-11T21:21:18.411Z,62.99
2023-03-11T21:23:48.226Z,63.78
2023-03-11T21:26:17.037Z,63.49
2023-03-11T21:28:47.069Z,63.50
2023-03-11T21:31:18.557Z,63.20
2023-03-11T21:33:46.114Z,63.58
2023-03-11T21:36:15.845Z,64.02
2023-03-11T21:38:43.142Z,63.74
2023-03-11T21:41:13.321Z,63.32
2023-03-11T21:43:44.614Z,63.66
2023-03-11T21:46:15.476Z,63.76
2023-03-11T21:48:43.416Z,64.97
2023-03-11T21:51:10.839Z,64.56
2023-03-11T21:53:38.179Z,65.36
2023-03-11T21:56:06.268Z,65.62
2023-03-11T21:58:33.880Z,65.81
2023-03-11T22:01:01.474Z,64.89
2023-03-11T22:03:29.107Z,64.35
2023-03-11T22:06:00.381Z,64.97
2023-03-11T22:08:27.929Z,64.33
2023-03-11T22:10:55.414Z,64.21
2023-03-11T22:13:23.961Z,64.31
2023-03-11T22:15:51.645Z,64.08
2023-03-11T22:18:18.932Z,64.12
2023-03-11T22:20:46.129Z,63.98
2023-03-11T22:23:13.314Z,63.88
2023-03-11T22:25:40.498Z,63.63
2023-03-11T22:28:10.488Z,62.87
2023-03-11T22:30:37.677Z,63.51
2023-03-11T22:33:04.803Z,63.48
2023-03-11T22:35:31.973Z,63.11
2023-03-11T22:37:59.154Z,63.73
2023-03-11T22:40:27.055Z,63.14
2023-03-11T22:42:54.198Z,62.87
2023-03-11T22:45:22.477Z,62.93
2023-03-11T22:47:50.540Z,63.06
2023-03-11T22:50:19.115Z,62.17
2023-03-11T22:52:46.274Z,62.97
2023-03-11T22:55:13.320Z,62.88
2023-03-11T22:57:40.441Z,62.02
2023-03-11T23:00:17.224Z,61.86
2023-03-11T23:02:49.458Z,61.95
2023-03-11T23:05:16.668Z,61.53
2023-03-11T23:07:43.768Z,61.22
2023-03-11T23:10:12.965Z,61.11
2023-03-11T23:12:40.505Z,60.34
2023-03-11T23:15:11.073Z,60.19
2023-03-11T23:17:38.697Z,61.26
2023-03-11T23:20:07.955Z,61.66
2023-03-11T23:22:37.170Z,61.63
2023-03-11T23:25:06.419Z,61.66
2023-03-11T23:27:33.536Z,60.99
2023-03-11T23:30:00.754Z,61.53
2023-03-11T23:32:28.514Z,61.80
2023-03-11T23:34:55.668Z,61.45
2023-03-11T23:37:23.827Z,61.00
2023-03-11T23:39:50.926Z,60.62
2023-03-11T23:42:25.498Z,59.97
2023-03-11T23:44:53.397Z,60.53
2023-03-11T23:47:20.661Z,60.23
2023-03-11T23:49:47.778Z,59.78
2023-03-11T23:52:15.123Z,60.19
2023-03-11T23:54:42.396Z,60.63
2023-03-11T23:57:09.447Z,59.80
2023-03-11T23:59:36.554Z,60.22
